sensor_id;sensor_type;location;lat;lon;timestamp;pressure;altitude;pressure_sealevel;temperature;humidity
67545;BME280;54380;47.770;11.150;2023-12-20T00:01:37;94877.06;;;5.75;55.40
67545;BME280;54380;47.770;11.150;2023-12-20T00:04:04;94876.03;;;5.76;55.17
67545;BME280;54380;47.770;11.150;2023-12-20T00:06:30;94861.56;;;5.73;55.04
67545;BME280;54380;47.770;11.150;2023-12-20T00:08:57;94863.97;;;5.75;55.32
67545;BME280;54380;47.770;11.150;2023-12-20T00:11:24;94861.56;;;5.73;55.61
67545;BME280;54380;47.770;11.150;2023-12-20T00:13:52;94852.31;;;5.70;55.56
67545;BME280;54380;47.770;11.150;2023-12-20T00:16:19;94851.31;;;5.71;55.47
67545;BME280;54380;47.770;11.150;2023-12-20T00:18:46;94853.13;;;5.71;55.28
67545;BME280;54380;47.770;11.150;2023-12-20T00:21:13;94856.75;;;5.70;55.39
67545;BME280;54380;47.770;11.150;2023-12-20T00:23:39;94846.28;;;5.70;55.59
67545;BME280;54380;47.770;11.150;2023-12-20T00:26:06;94843.88;;;5.68;54.67
67545;BME280;54380;47.770;11.150;2023-12-20T00:28:33;94842.09;;;5.69;54.87
67545;BME280;54380;47.770;11.150;2023-12-20T00:31:01;94847.88;;;5.71;55.51
67545;BME280;54380;47.770;11.150;2023-12-20T00:33:28;94844.25;;;5.72;54.89
67545;BME280;54380;47.770;11.150;2023-12-20T00:35:55;94843.00;;;5.75;54.74
67545;BME280;54380;47.770;11.150;2023-12-20T00:38:21;94828.09;;;5.75;55.11
67545;BME280;54380;47.770;11.150;2023-12-20T00:40:49;94834.91;;;5.76;54.66
67545;BME280;54380;47.770;11.150;2023-12-20T00:43:16;94832.09;;;5.78;54.60
67545;BME280;54380;47.770;11.150;2023-12-20T00:45:42;94823.19;;;5.79;54.90
67545;BME280;54380;47.770;11.150;2023-12-20T00:48:11;94824.22;;;5.78;54.55
67545;BME280;54380;47.770;11.150;2023-12-20T00:50:38;94818.19;;;5.77;54.90
67545;BME280;54380;47.770;11.150;2023-12-20T00:53:04;94812.72;;;5.79;55.10
67545;BME280;54380;47.770;11.150;2023-12-20T00:55:32;94817.16;;;5.78;54.74
67545;BME280;54380;47.770;11.150;2023-12-20T00:57:58;94794.38;;;5.79;54.57
67545;BME280;54380;47.770;11.150;2023-12-20T01:00:26;94791.31;;;5.82;54.29
67545;BME280;54380;47.770;11.150;2023-12-20T01:02:53;94798.97;;;5.83;54.33
67545;BME280;54380;47.770;11.150;2023-12-20T01:05:21;94793.72;;;5.83;54.57
67545;BME280;54380;47.770;11.150;2023-12-20T01:07:51;94787.47;;;5.84;53.93
67545;BME280;54380;47.770;11.150;2023-12-20T01:10:18;94783.38;;;5.88;54.25
67545;BME280;54380;47.770;11.150;2023-12-20T01:12:45;94790.22;;;5.89;53.92
67545;BME280;54380;47.770;11.150;2023-12-20T01:15:12;94794.44;;;5.90;54.07
67545;BME280;54380;47.770;11.150;2023-12-20T01:17:38;94793.41;;;5.91;54.11
67545;BME280;54380;47.770;11.150;2023-12-20T01:20:06;94807.91;;;5.94;54.08
67545;BME280;54380;47.770;11.150;2023-12-20T01:22:34;94794.81;;;5.94;53.99
67545;BME280;54380;47.770;11.150;2023-12-20T01:25:02;94794.81;;;5.94;54.23
67545;BME280;54380;47.770;11.150;2023-12-20T01:27:29;94798.44;;;5.93;54.17
67545;BME280;54380;47.770;11.150;2023-12-20T01:29:57;94792.84;;;5.89;54.00
67545;BME280;54380;47.770;11.150;2023-12-20T01:32:24;94799.31;;;5.87;54.42
67545;BME280;54380;47.770;11.150;2023-12-20T01:34:51;94806.63;;;5.85;54.00
67545;BME280;54380;47.770;11.150;2023-12-20T01:37:17;94796.94;;;5.85;53.87
67545;BME280;54380;47.770;11.150;2023-12-20T01:39:46;94816.28;;;5.84;54.36
67545;BME280;54380;47.770;11.150;2023-12-20T01:42:13;94801.59;;;5.83;53.94
67545;BME280;54380;47.770;11.150;2023-12-20T01:44:39;94792.94;;;5.83;53.91
67545;BME280;54380;47.770;11.150;2023-12-20T01:47:07;94796.56;;;5.82;53.84
67545;BME280;54380;47.770;11.150;2023-12-20T01:49:34;94789.75;;;5.81;54.11
67545;BME280;54380;47.770;11.150;2023-12-20T01:52:02;94790.53;;;5.81;53.77
67545;BME280;54380;47.770;11.150;2023-12-20T01:54:29;94784.50;;;5.81;54.66
67545;BME280;54380;47.770;11.150;2023-12-20T01:56:57;94782.09;;;5.79;54.35
67545;BME280;54380;47.770;11.150;2023-12-20T01:59:23;94773.22;;;5.80;54.16
67545;BME280;54380;47.770;11.150;2023-12-20T02:01:50;94775.41;;;5.83;53.92
67545;BME280;54380;47.770;11.150;2023-12-20T02:04:17;94775.41;;;5.83;53.87
67545;BME280;54380;47.770;11.150;2023-12-20T02:06:44;94774.38;;;5.84;54.03
67545;BME280;54380;47.770;11.150;2023-12-20T02:09:13;94771.75;;;5.84;54.48
67545;BME280;54380;47.770;11.150;2023-12-20T02:11:40;94772.31;;;5.86;53.90
67545;BME280;54380;47.770;11.150;2023-12-20T02:14:08;94765.50;;;5.85;54.29
67545;BME280;54380;47.770;11.150;2023-12-20T02:16:35;94768.13;;;5.85;54.05
67545;BME280;54380;47.770;11.150;2023-12-20T02:19:02;94770.28;;;5.88;53.99
67545;BME280;54380;47.770;11.150;2023-12-20T02:21:33;94776.13;;;5.90;54.32
67545;BME280;54380;47.770;11.150;2023-12-20T02:24:03;94766.63;;;5.89;53.73
67545;BME280;54380;47.770;11.150;2023-12-20T02:26:29;94767.22;;;5.91;54.08
67545;BME280;54380;47.770;11.150;2023-12-20T02:28:57;94755.94;;;5.91;53.58
67545;BME280;54380;47.770;11.150;2023-12-20T02:31:24;94750.28;;;5.94;53.70
67545;BME280;54380;47.770;11.150;2023-12-20T02:33:51;94737.41;;;5.92;53.60
67545;BME280;54380;47.770;11.150;2023-12-20T02:36:18;94729.75;;;5.91;53.74
67545;BME280;54380;47.770;11.150;2023-12-20T02:38:46;94742.84;;;5.91;53.89
67545;BME280;54380;47.770;11.150;2023-12-20T02:41:13;94741.03;;;5.91;53.62
67545;BME280;54380;47.770;11.150;2023-12-20T02:43:42;94737.59;;;5.91;53.52
67545;BME280;54380;47.770;11.150;2023-12-20T02:46:08;94733.41;;;5.90;54.07
67545;BME280;54380;47.770;11.150;2023-12-20T02:48:35;94729.53;;;5.92;53.83
67545;BME280;54380;47.770;11.150;2023-12-20T02:51:02;94724.31;;;5.92;53.95
67545;BME280;54380;47.770;11.150;2023-12-20T02:53:29;94729.75;;;5.91;53.76
67545;BME280;54380;47.770;11.150;2023-12-20T02:55:57;94720.31;;;5.90;54.19
67545;BME280;54380;47.770;11.150;2023-12-20T02:58:24;94717.91;;;5.88;54.28
67545;BME280;54380;47.770;11.150;2023-12-20T03:00:51;94714.25;;;5.89;54.49
67545;BME280;54380;47.770;11.150;2023-12-20T03:03:18;94707.22;;;5.90;54.66
67545;BME280;54380;47.770;11.150;2023-12-20T03:05:45;94706.97;;;5.91;54.77
67545;BME280;54380;47.770;11.150;2023-12-20T03:08:12;94713.41;;;5.96;54.99
67545;BME280;54380;47.770;11.150;2023-12-20T03:10:39;94715.22;;;5.95;54.25
67545;BME280;54380;47.770;11.150;2023-12-20T03:13:07;94728.09;;;5.97;54.38
67545;BME280;54380;47.770;11.150;2023-12-20T03:15:33;94725.25;;;5.98;54.57
67545;BME280;54380;47.770;11.150;2023-12-20T03:18:00;94724.66;;;5.96;53.79
67545;BME280;54380;47.770;11.150;2023-12-20T03:20:27;94727.63;;;6.00;53.76
67545;BME280;54380;47.770;11.150;2023-12-20T03:22:54;94720.94;;;6.04;53.76
67545;BME280;54380;47.770;11.150;2023-12-20T03:25:20;94717.84;;;6.07;53.62
67545;BME280;54380;47.770;11.150;2023-12-20T03:27:47;94722.63;;;6.10;53.96
67545;BME280;54380;47.770;11.150;2023-12-20T03:30:16;94709.06;;;6.13;54.08
67545;BME280;54380;47.770;11.150;2023-12-20T03:32:43;94705.22;;;6.15;54.04
67545;BME280;54380;47.770;11.150;2023-12-20T03:35:10;94711.81;;;6.18;54.34
67545;BME280;54380;47.770;11.150;2023-12-20T03:37:39;94710.22;;;6.17;54.02
67545;BME280;54380;47.770;11.150;2023-12-20T03:40:06;94715.81;;;6.21;53.96
67545;BME280;54380;47.770;11.150;2023-12-20T03:42:33;94719.00;;;6.23;54.03
67545;BME280;54380;47.770;11.150;2023-12-20T03:44:59;94718.34;;;6.27;53.89
67545;BME280;54380;47.770;11.150;2023-12-20T03:47:28;94727.56;;;6.30;53.90
67545;BME280;54380;47.770;11.150;2023-12-20T03:49:54;94727.91;;;6.33;53.92
67545;BME280;54380;47.770;11.150;2023-12-20T03:52:21;94730.84;;;6.37;54.48
67545;BME280;54380;47.770;11.150;2023-12-20T03:54:48;94728.81;;;6.39;54.67
67545;BME280;54380;47.770;11.150;2023-12-20T03:57:15;94728.25;;;6.37;54.68
67545;BME280;54380;47.770;11.150;2023-12-20T03:59:41;94729.06;;;6.37;54.74
67545;BME280;54380;47.770;11.150;2023-12-20T04:02:08;94734.06;;;6.39;55.18
67545;BME280;54380;47.770;11.150;2023-12-20T04:04:36;94727.56;;;6.42;56.06
67545;BME280;54380;47.770;11.150;2023-12-20T04:07:03;94735.78;;;6.45;55.92
67545;BME280;54380;47.770;11.150;2023-12-20T04:09:30;94734.75;;;6.46;56.44
67545;BME280;54380;47.770;11.150;2023-12-20T04:11:56;94729.63;;;6.51;56.59
67545;BME280;54380;47.770;11.150;2023-12-20T04:14:23;94729.16;;;6.54;56.24
67545;BME280;54380;47.770;11.150;2023-12-20T04:16:51;94737.72;;;6.50;56.68
67545;BME280;54380;47.770;11.150;2023-12-20T04:19:18;94738.53;;;6.50;56.73
67545;BME280;54380;47.770;11.150;2023-12-20T04:21:47;94749.03;;;6.50;56.83
67545;BME280;54380;47.770;11.150;2023-12-20T04:24:14;94753.22;;;6.51;56.94
67545;BME280;54380;47.770;11.150;2023-12-20T04:26:40;94757.22;;;6.54;57.24
67545;BME280;54380;47.770;11.150;2023-12-20T04:29:07;94762.47;;;6.54;57.01
67545;BME280;54380;47.770;11.150;2023-12-20T04:31:34;94762.47;;;6.54;56.97
67545;BME280;54380;47.770;11.150;2023-12-20T04:34:00;94763.03;;;6.56;57.52
67545;BME280;54380;47.770;11.150;2023-12-20T04:36:27;94754.34;;;6.55;57.36
67545;BME280;54380;47.770;11.150;2023-12-20T04:38:58;94760.97;;;6.58;57.59
67545;BME280;54380;47.770;11.150;2023-12-20T04:41:26;94749.22;;;6.60;57.75
67545;BME280;54380;47.770;11.150;2023-12-20T04:43:54;94735.91;;;6.62;57.78
67545;BME280;54380;47.770;11.150;2023-12-20T04:46:21;94723.81;;;6.61;58.91
67545;BME280;54380;47.770;11.150;2023-12-20T04:48:47;94715.72;;;6.63;58.37
67545;BME280;54380;47.770;11.150;2023-12-20T04:51:15;94714.44;;;6.65;57.89
67545;BME280;54380;47.770;11.150;2023-12-20T04:53:41;94714.25;;;6.67;58.09
67545;BME280;54380;47.770;11.150;2023-12-20T04:56:09;94724.94;;;6.65;58.03
67545;BME280;54380;47.770;11.150;2023-12-20T04:58:36;94720.94;;;6.63;58.42
67545;BME280;54380;47.770;11.150;2023-12-20T05:01:03;94721.19;;;6.61;58.58
67545;BME280;54380;47.770;11.150;2023-12-20T05:03:30;94734.63;;;6.65;58.31
67545;BME280;54380;47.770;11.150;2023-12-20T05:05:56;94723.56;;;6.63;58.27
67545;BME280;54380;47.770;11.150;2023-12-20T05:08:23;94742.28;;;6.66;58.09
67545;BME280;54380;47.770;11.150;2023-12-20T05:10:50;94738.84;;;6.66;58.43
67545;BME280;54380;47.770;11.150;2023-12-20T05:13:18;94744.09;;;6.66;57.90
67545;BME280;54380;47.770;11.150;2023-12-20T05:15:44;94764.63;;;6.69;58.30
67545;BME280;54380;47.770;11.150;2023-12-20T05:18:11;94760.97;;;6.70;58.13
67545;BME280;54380;47.770;11.150;2023-12-20T05:20:38;94763.81;;;6.68;57.99
67545;BME280;54380;47.770;11.150;2023-12-20T05:23:05;94774.69;;;6.72;58.29
67545;BME280;54380;47.770;11.150;2023-12-20T05:25:31;94782.19;;;6.68;58.46
67545;BME280;54380;47.770;11.150;2023-12-20T05:27:58;94783.56;;;6.71;58.36
67545;BME280;54380;47.770;11.150;2023-12-20T05:30:27;94786.53;;;6.74;58.03
67545;BME280;54380;47.770;11.150;2023-12-20T05:32:53;94794.03;;;6.71;58.56
67545;BME280;54380;47.770;11.150;2023-12-20T05:35:20;94796.91;;;6.69;58.59
67545;BME280;54380;47.770;11.150;2023-12-20T05:37:49;94802.38;;;6.68;58.92
67545;BME280;54380;47.770;11.150;2023-12-20T05:40:15;94813.44;;;6.70;58.77
67545;BME280;54380;47.770;11.150;2023-12-20T05:42:42;94811.50;;;6.65;58.81
67545;BME280;54380;47.770;11.150;2023-12-20T05:45:10;94816.88;;;6.58;59.02
67545;BME280;54380;47.770;11.150;2023-12-20T05:47:38;94826.19;;;6.54;59.16
67545;BME280;54380;47.770;11.150;2023-12-20T05:50:05;94826.66;;;6.51;59.81
67545;BME280;54380;47.770;11.150;2023-12-20T05:52:32;94830.72;;;6.47;59.49
67545;BME280;54380;47.770;11.150;2023-12-20T05:54:58;94837.00;;;6.46;60.10
67545;BME280;54380;47.770;11.150;2023-12-20T05:57:27;94834.84;;;6.43;59.74
67545;BME280;54380;47.770;11.150;2023-12-20T05:59:54;94846.00;;;6.38;60.35
67545;BME280;54380;47.770;11.150;2023-12-20T06:02:21;94855.13;;;6.36;60.44
67545;BME280;54380;47.770;11.150;2023-12-20T06:04:49;94846.91;;;6.32;60.43
67545;BME280;54380;47.770;11.150;2023-12-20T06:07:16;94857.59;;;6.31;60.71
67545;BME280;54380;47.770;11.150;2023-12-20T06:09:43;94869.00;;;6.25;60.81
67545;BME280;54380;47.770;11.150;2023-12-20T06:12:10;94866.69;;;6.17;60.59
67545;BME280;54380;47.770;11.150;2023-12-20T06:14:36;94874.19;;;6.13;61.32
67545;BME280;54380;47.770;11.150;2023-12-20T06:17:03;94861.53;;;6.10;61.50
67545;BME280;54380;47.770;11.150;2023-12-20T06:19:30;94878.72;;;6.06;61.32
67545;BME280;54380;47.770;11.150;2023-12-20T06:21:58;94869.91;;;6.00;61.80
67545;BME280;54380;47.770;11.150;2023-12-20T06:24:25;94884.25;;;5.98;62.14
67545;BME280;54380;47.770;11.150;2023-12-20T06:26:54;94878.44;;;5.96;61.78
67545;BME280;54380;47.770;11.150;2023-12-20T06:29:24;94885.09;;;5.91;61.70
67545;BME280;54380;47.770;11.150;2023-12-20T06:31:51;94879.72;;;5.86;61.99
67545;BME280;54380;47.770;11.150;2023-12-20T06:34:17;94883.38;;;5.85;62.00
67545;BME280;54380;47.770;11.150;2023-12-20T06:36:44;94890.66;;;5.83;62.32
67545;BME280;54380;47.770;11.150;2023-12-20T06:39:12;94890.84;;;5.82;62.31
67545;BME280;54380;47.770;11.150;2023-12-20T06:41:40;94898.31;;;5.85;62.34
67545;BME280;54380;47.770;11.150;2023-12-20T06:44:09;94898.06;;;5.86;61.99
67545;BME280;54380;47.770;11.150;2023-12-20T06:46:36;94901.72;;;5.85;61.99
67545;BME280;54380;47.770;11.150;2023-12-20T06:49:02;94911.00;;;5.81;62.08
67545;BME280;54380;47.770;11.150;2023-12-20T06:51:29;94911.41;;;5.85;62.77
67545;BME280;54380;47.770;11.150;2023-12-20T06:53:57;94915.25;;;5.82;62.46
67545;BME280;54380;47.770;11.150;2023-12-20T06:56:25;94913.28;;;5.78;62.64
67545;BME280;54380;47.770;11.150;2023-12-20T06:58:52;94917.34;;;5.73;62.77
67545;BME280;54380;47.770;11.150;2023-12-20T07:01:18;94917.59;;;5.72;62.67
67545;BME280;54380;47.770;11.150;2023-12-20T07:03:45;94932.13;;;5.68;63.20
67545;BME280;54380;47.770;11.150;2023-12-20T07:06:12;94924.06;;;5.69;63.09
67545;BME280;54380;47.770;11.150;2023-12-20T07:08:40;94931.53;;;5.66;63.51
67545;BME280;54380;47.770;11.150;2023-12-20T07:11:07;94944.41;;;5.67;63.41
67545;BME280;54380;47.770;11.150;2023-12-20T07:13:35;94942.84;;;5.66;63.61
67545;BME280;54380;47.770;11.150;2023-12-20T07:16:02;94944.41;;;5.67;63.39
67545;BME280;54380;47.770;11.150;2023-12-20T07:18:29;94942.00;;;5.66;62.92
67545;BME280;54380;47.770;11.150;2023-12-20T07:20:56;94935.63;;;5.62;63.33
67545;BME280;54380;47.770;11.150;2023-12-20T07:23:23;94942.69;;;5.61;63.00
67545;BME280;54380;47.770;11.150;2023-12-20T07:25:49;94948.47;;;5.63;63.41
67545;BME280;54380;47.770;11.150;2023-12-20T07:28:16;94957.16;;;5.64;63.34
67545;BME280;54380;47.770;11.150;2023-12-20T07:30:44;94949.31;;;5.64;62.72
67545;BME280;54380;47.770;11.150;2023-12-20T07:33:11;94957.16;;;5.64;63.09
67545;BME280;54380;47.770;11.150;2023-12-20T07:35:39;94955.78;;;5.61;63.35
67545;BME280;54380;47.770;11.150;2023-12-20T07:38:06;94958.38;;;5.61;63.12
67545;BME280;54380;47.770;11.150;2023-12-20T07:40:33;94953.34;;;5.60;63.39
67545;BME280;54380;47.770;11.150;2023-12-20T07:43:00;94946.75;;;5.57;63.57
67545;BME280;54380;47.770;11.150;2023-12-20T07:45:27;94969.72;;;5.55;63.13
67545;BME280;54380;47.770;11.150;2023-12-20T07:47:55;94971.75;;;5.53;63.38
67545;BME280;54380;47.770;11.150;2023-12-20T07:50:22;94969.72;;;5.55;63.39
67545;BME280;54380;47.770;11.150;2023-12-20T07:52:49;94971.09;;;5.58;63.48
67545;BME280;54380;47.770;11.150;2023-12-20T07:55:16;94963.84;;;5.60;62.92
67545;BME280;54380;47.770;11.150;2023-12-20T07:57:42;94959.03;;;5.57;63.38
67545;BME280;54380;47.770;11.150;2023-12-20T08:00:10;94963.47;;;5.56;63.50
67545;BME280;54380;47.770;11.150;2023-12-20T08:02:37;94970.88;;;5.59;63.25
67545;BME280;54380;47.770;11.150;2023-12-20T08:05:06;94965.84;;;5.58;63.12
67545;BME280;54380;47.770;11.150;2023-12-20T08:07:33;94965.31;;;5.56;63.05
67545;BME280;54380;47.770;11.150;2023-12-20T08:10:00;94971.75;;;5.53;63.13
67545;BME280;54380;47.770;11.150;2023-12-20T08:12:26;94974.94;;;5.55;63.41
67545;BME280;54380;47.770;11.150;2023-12-20T08:14:54;94978.16;;;5.57;63.39
67545;BME280;54380;47.770;11.150;2023-12-20T08:17:21;94975.91;;;5.61;63.20
67545;BME280;54380;47.770;11.150;2023-12-20T08:19:50;94978.09;;;5.64;63.73
67545;BME280;54380;47.770;11.150;2023-12-20T08:22:19;94983.91;;;5.66;63.37
67545;BME280;54380;47.770;11.150;2023-12-20T08:24:46;94984.94;;;5.65;62.91
67545;BME280;54380;47.770;11.150;2023-12-20T08:27:13;94985.97;;;5.64;63.03
67545;BME280;54380;47.770;11.150;2023-12-20T08:29:39;94980.50;;;5.65;63.19
67545;BME280;54380;47.770;11.150;2023-12-20T08:32:06;94986.53;;;5.66;62.78
67545;BME280;54380;47.770;11.150;2023-12-20T08:34:33;94986.31;;;5.67;63.24
67545;BME280;54380;47.770;11.150;2023-12-20T08:37:00;94983.69;;;5.67;63.11
67545;BME280;54380;47.770;11.150;2023-12-20T08:39:28;94981.09;;;5.67;62.66
67545;BME280;54380;47.770;11.150;2023-12-20T08:41:58;94978.47;;;5.67;63.21
67545;BME280;54380;47.770;11.150;2023-12-20T08:44:25;94982.91;;;5.67;63.01
67545;BME280;54380;47.770;11.150;2023-12-20T08:46:52;94977.44;;;5.68;63.15
67545;BME280;54380;47.770;11.150;2023-12-20T08:49:18;94981.28;;;5.66;62.75
67545;BME280;54380;47.770;11.150;2023-12-20T08:51:46;94974.47;;;5.65;63.61
67545;BME280;54380;47.770;11.150;2023-12-20T08:54:12;94960.13;;;5.67;62.94
67545;BME280;54380;47.770;11.150;2023-12-20T08:56:41;94969.56;;;5.68;63.25
67545;BME280;54380;47.770;11.150;2023-12-20T08:59:07;94963.50;;;5.75;62.79
67545;BME280;54380;47.770;11.150;2023-12-20T09:01:34;94972.72;;;5.77;62.59
67545;BME280;54380;47.770;11.150;2023-12-20T09:04:01;94973.28;;;5.79;63.31
67545;BME280;54380;47.770;11.150;2023-12-20T09:06:28;94972.28;;;5.80;63.19
67545;BME280;54380;47.770;11.150;2023-12-20T09:08:56;94963.78;;;5.85;63.00
67545;BME280;54380;47.770;11.150;2023-12-20T09:11:22;94966.41;;;5.85;63.11
67545;BME280;54380;47.770;11.150;2023-12-20T09:13:51;94968.19;;;5.84;63.38
67545;BME280;54380;47.770;11.150;2023-12-20T09:16:18;94972.00;;;5.88;62.92
67545;BME280;54380;47.770;11.150;2023-12-20T09:18:44;94963.69;;;5.91;62.88
67545;BME280;54380;47.770;11.150;2023-12-20T09:21:11;94966.13;;;5.93;62.32
67545;BME280;54380;47.770;11.150;2023-12-20T09:23:38;94972.19;;;5.93;62.56
67545;BME280;54380;47.770;11.150;2023-12-20T09:26:05;94962.28;;;5.96;62.43
67545;BME280;54380;47.770;11.150;2023-12-20T09:28:32;94957.59;;;5.98;62.99
67545;BME280;54380;47.770;11.150;2023-12-20T09:31:05;94965.06;;;6.01;62.34
67545;BME280;54380;47.770;11.150;2023-12-20T09:33:32;94958.19;;;6.00;62.65
67545;BME280;54380;47.770;11.150;2023-12-20T09:35:59;94961.75;;;6.05;62.67
67545;BME280;54380;47.770;11.150;2023-12-20T09:38:26;94963.38;;;6.06;62.37
67545;BME280;54380;47.770;11.150;2023-12-20T09:40:53;94960.50;;;6.08;62.78
67545;BME280;54380;47.770;11.150;2023-12-20T09:43:21;94963.28;;;6.13;62.29
67545;BME280;54380;47.770;11.150;2023-12-20T09:45:50;94956.78;;;6.15;62.61
67545;BME280;54380;47.770;11.150;2023-12-20T09:48:20;94960.34;;;6.21;62.21
67545;BME280;54380;47.770;11.150;2023-12-20T09:50:47;94960.50;;;6.26;62.21
67545;BME280;54380;47.770;11.150;2023-12-20T09:53:19;94961.66;;;6.30;62.11
67545;BME280;54380;47.770;11.150;2023-12-20T09:55:45;94961.00;;;6.35;61.85
67545;BME280;54380;47.770;11.150;2023-12-20T09:58:12;94960.78;;;6.36;61.77
67545;BME280;54380;47.770;11.150;2023-12-20T10:00:39;94966.00;;;6.36;61.53
67545;BME280;54380;47.770;11.150;2023-12-20T10:03:06;94961.34;;;6.38;61.98
67545;BME280;54380;47.770;11.150;2023-12-20T10:05:34;94958.72;;;6.38;61.75
67545;BME280;54380;47.770;11.150;2023-12-20T10:08:01;94956.69;;;6.41;61.84
67545;BME280;54380;47.770;11.150;2023-12-20T10:10:29;94964.47;;;6.47;61.76
67545;BME280;54380;47.770;11.150;2023-12-20T10:13:10;94952.72;;;6.50;61.67
67545;BME280;54380;47.770;11.150;2023-12-20T10:15:38;94944.88;;;6.50;61.13
67545;BME280;54380;47.770;11.150;2023-12-20T10:18:05;94938.47;;;6.46;61.34
67545;BME280;54380;47.770;11.150;2023-12-20T10:20:32;94948.16;;;6.45;61.39
67545;BME280;54380;47.770;11.150;2023-12-20T10:23:01;94941.69;;;6.48;61.79
67545;BME280;54380;47.770;11.150;2023-12-20T10:25:28;94933.91;;;6.53;61.54
67545;BME280;54380;47.770;11.150;2023-12-20T10:28:08;94946.38;;;6.57;61.43
67545;BME280;54380;47.770;11.150;2023-12-20T10:30:35;94942.75;;;6.58;61.29
67545;BME280;54380;47.770;11.150;2023-12-20T10:33:02;94939.66;;;6.62;61.00
67545;BME280;54380;47.770;11.150;2023-12-20T10:35:29;94930.78;;;6.63;61.13
67545;BME280;54380;47.770;11.150;2023-12-20T10:37:56;94936.81;;;6.63;61.09
67545;BME280;54380;47.770;11.150;2023-12-20T10:40:28;94933.97;;;6.65;61.32
67545;BME280;54380;47.770;11.150;2023-12-20T10:42:56;94928.53;;;6.66;61.61
67545;BME280;54380;47.770;11.150;2023-12-20T10:45:24;94928.53;;;6.66;61.68
67545;BME280;54380;47.770;11.150;2023-12-20T10:47:52;94928.84;;;6.70;61.56
67545;BME280;54380;47.770;11.150;2023-12-20T10:50:19;94934.91;;;6.70;61.56
67545;BME280;54380;47.770;11.150;2023-12-20T10:52:47;94921.78;;;6.70;62.03
67545;BME280;54380;47.770;11.150;2023-12-20T10:55:14;94923.75;;;6.75;61.49
67545;BME280;54380;47.770;11.150;2023-12-20T10:57:42;94927.50;;;6.79;61.71
67545;BME280;54380;47.770;11.150;2023-12-20T11:00:12;94914.97;;;6.81;61.69
67545;BME280;54380;47.770;11.150;2023-12-20T11:02:41;94911.44;;;6.87;61.41
67545;BME280;54380;47.770;11.150;2023-12-20T11:05:10;94909.63;;;6.88;61.78
67545;BME280;54380;47.770;11.150;2023-12-20T11:07:41;94904.72;;;6.91;61.82
67545;BME280;54380;47.770;11.150;2023-12-20T11:10:10;94907.47;;;6.96;61.56
67545;BME280;54380;47.770;11.150;2023-12-20T11:12:44;94904.38;;;6.99;61.28
67545;BME280;54380;47.770;11.150;2023-12-20T11:15:13;94900.28;;;7.03;61.28
67545;BME280;54380;47.770;11.150;2023-12-20T11:17:40;94897.19;;;7.07;61.07
67545;BME280;54380;47.770;11.150;2023-12-20T11:20:08;94904.63;;;7.10;60.92
67545;BME280;54380;47.770;11.150;2023-12-20T11:22:37;94899.25;;;7.04;60.97
67545;BME280;54380;47.770;11.150;2023-12-20T11:25:09;94901.88;;;7.04;61.17
67545;BME280;54380;47.770;11.150;2023-12-20T11:27:36;94899.59;;;7.08;60.67
67545;BME280;54380;47.770;11.150;2023-12-20T11:30:06;94899.16;;;7.11;61.03
67545;BME280;54380;47.770;11.150;2023-12-20T11:32:33;94900.75;;;7.12;60.99
67545;BME280;54380;47.770;11.150;2023-12-20T11:35:01;94907.56;;;7.13;60.82
67545;BME280;54380;47.770;11.150;2023-12-20T11:37:42;94896.84;;;7.15;60.88
67545;BME280;54380;47.770;11.150;2023-12-20T11:40:11;94896.28;;;7.13;60.41
67545;BME280;54380;47.770;11.150;2023-12-20T11:42:38;94901.53;;;7.13;60.21
67545;BME280;54380;47.770;11.150;2023-12-20T11:45:09;94893.06;;;7.11;60.40
67545;BME280;54380;47.770;11.150;2023-12-20T11:47:36;94906.91;;;7.06;60.50
67545;BME280;54380;47.770;11.150;2023-12-20T11:50:02;94895.59;;;7.06;60.65
67545;BME280;54380;47.770;11.150;2023-12-20T11:52:31;94893.41;;;7.02;60.49
67545;BME280;54380;47.770;11.150;2023-12-20T11:54:58;94902.13;;;7.03;60.62
67545;BME280;54380;47.770;11.150;2023-12-20T11:57:25;94901.53;;;7.01;61.01
67545;BME280;54380;47.770;11.150;2023-12-20T11:59:54;94901.28;;;7.02;60.80
67545;BME280;54380;47.770;11.150;2023-12-20T12:02:22;94898.44;;;7.04;60.93
67545;BME280;54380;47.770;11.150;2023-12-20T12:04:50;94891.38;;;7.04;60.97
67545;BME280;54380;47.770;11.150;2023-12-20T12:07:19;94894.66;;;7.00;60.92
67545;BME280;54380;47.770;11.150;2023-12-20T12:09:46;94886.47;;;6.96;60.99
67545;BME280;54380;47.770;11.150;2023-12-20T12:12:13;94889.75;;;6.92;61.25
67545;BME280;54380;47.770;11.150;2023-12-20T12:14:40;94886.91;;;6.93;61.35
67545;BME280;54380;47.770;11.150;2023-12-20T12:17:09;94883.50;;;6.93;61.20
67545;BME280;54380;47.770;11.150;2023-12-20T12:19:38;94884.31;;;6.93;61.02
67545;BME280;54380;47.770;11.150;2023-12-20T12:22:05;94874.81;;;6.92;61.28
67545;BME280;54380;47.770;11.150;2023-12-20T12:24:34;94896.25;;;6.89;61.29
67545;BME280;54380;47.770;11.150;2023-12-20T12:27:01;94889.09;;;6.85;61.25
67545;BME280;54380;47.770;11.150;2023-12-20T12:29:27;94898.31;;;6.87;61.75
67545;BME280;54380;47.770;11.150;2023-12-20T12:31:54;94894.75;;;6.81;61.82
67545;BME280;54380;47.770;11.150;2023-12-20T12:34:21;94895.22;;;6.78;61.65
67545;BME280;54380;47.770;11.150;2023-12-20T12:36:49;94894.88;;;6.75;62.20
67545;BME280;54380;47.770;11.150;2023-12-20T12:39:17;94890.88;;;6.72;62.04
67545;BME280;54380;47.770;11.150;2023-12-20T12:41:44;94898.38;;;6.69;62.04
67545;BME280;54380;47.770;11.150;2023-12-20T12:44:11;94890.75;;;6.67;62.10
67545;BME280;54380;47.770;11.150;2023-12-20T12:46:43;94889.38;;;6.65;62.02
67545;BME280;54380;47.770;11.150;2023-12-20T12:49:10;94887.78;;;6.64;62.59
67545;BME280;54380;47.770;11.150;2023-12-20T12:51:37;94879.94;;;6.64;62.48
67545;BME280;54380;47.770;11.150;2023-12-20T12:54:05;94882.75;;;6.62;62.49
67545;BME280;54380;47.770;11.150;2023-12-20T12:56:31;94886.84;;;6.58;62.47
67545;BME280;54380;47.770;11.150;2023-12-20T12:59:17;94892.53;;;6.55;62.23
67545;BME280;54380;47.770;11.150;2023-12-20T13:01:53;94875.44;;;6.52;62.86